Time;durP1;ratioP1;P1;durP2;ratioP2;P2;SDS_P1;SDS_P2;PMS_P1;PMS_P2;Temp;Humidity;BMP_temperature;BMP_pressure;BME280_temperature;BME280_humidity;BME280_pressure;Samples;Min_cycle;Max_cycle;Signal;HPM_P1;HPM_P2
2020/12/12 00:02:09;;;;;;;29.63;21.47;;;4.70;99.90;;;;;;5027733;28;20441;-65
2020/12/12 00:04:35;;;;;;;28.30;20.67;;;4.70;99.90;;;;;;5030553;28;20175;-64
2020/12/12 00:07:01;;;;;;;29.07;21.53;;;4.60;99.90;;;;;;5030436;28;20226;-65
2020/12/12 00:09:26;;;;;;;28.63;20.83;;;4.70;99.90;;;;;;5016599;28;20180;-65
2020/12/12 00:11:52;;;;;;;29.00;21.47;;;4.60;99.90;;;;;;5024155;28;20578;-66
2020/12/12 00:14:17;;;;;;;28.07;20.93;;;4.60;99.90;;;;;;5022413;28;20608;-64
2020/12/12 00:16:43;;;;;;;28.07;20.53;;;4.60;99.90;;;;;;5022292;28;20204;-65
2020/12/12 00:19:10;;;;;;;29.90;21.87;;;4.70;99.90;;;;;;5012903;28;20307;-66
2020/12/12 00:21:35;;;;;;;28.93;22.70;;;4.60;99.90;;;;;;4996971;28;20183;-65
2020/12/12 00:24:01;;;;;;;31.23;22.60;;;4.70;99.90;;;;;;5008320;28;20419;-66
2020/12/12 00:26:27;;;;;;;26.77;20.03;;;4.60;99.90;;;;;;4998386;28;20185;-64
2020/12/12 00:28:52;;;;;;;27.77;20.77;;;4.60;99.90;;;;;;5005549;28;20621;-64
2020/12/12 00:31:19;;;;;;;38.30;21.17;;;4.60;99.90;;;;;;5002765;28;20253;-66
2020/12/12 00:33:46;;;;;;;41.37;22.67;;;4.70;99.90;;;;;;5004826;28;20181;-66
2020/12/12 00:36:11;;;;;;;27.57;19.87;;;4.70;99.90;;;;;;4994778;28;20459;-67
2020/12/12 00:38:37;;;;;;;27.20;20.10;;;4.70;99.90;;;;;;5006379;28;20427;-65
2020/12/12 00:41:05;;;;;;;42.20;20.23;;;4.70;99.90;;;;;;5005567;28;20224;-67
2020/12/12 00:43:30;;;;;;;29.40;21.03;;;4.80;99.90;;;;;;4998149;28;20191;-64
2020/12/12 00:45:56;;;;;;;25.80;19.37;;;4.80;99.90;;;;;;5006036;28;20411;-65
2020/12/12 00:48:21;;;;;;;26.37;19.37;;;4.90;99.90;;;;;;5004777;28;20243;-65
2020/12/12 00:50:48;;;;;;;24.70;18.27;;;4.90;99.90;;;;;;4993867;28;20195;-65
2020/12/12 00:53:14;;;;;;;25.07;19.90;;;4.90;99.90;;;;;;5009123;28;20177;-66
2020/12/12 00:55:40;;;;;;;24.47;18.40;;;4.80;99.90;;;;;;5003879;28;20451;-66
2020/12/12 00:58:05;;;;;;;26.57;19.33;;;4.80;99.90;;;;;;5011398;28;20853;-65
2020/12/12 01:00:33;;;;;;;24.93;19.07;;;4.90;99.90;;;;;;5011381;28;20240;-66
2020/12/12 01:03:00;;;;;;;23.73;18.43;;;4.80;99.90;;;;;;4999241;28;20173;-66
2020/12/12 01:05:26;;;;;;;24.67;18.87;;;4.90;99.90;;;;;;5005456;28;20519;-62
2020/12/12 01:07:52;;;;;;;21.73;17.87;;;4.80;99.90;;;;;;5004510;28;20502;-65
2020/12/12 01:10:17;;;;;;;24.27;17.57;;;4.90;99.90;;;;;;4988226;28;20631;-65
2020/12/12 01:12:43;;;;;;;27.33;19.13;;;5.00;99.90;;;;;;5003852;28;20639;-64
2020/12/12 01:15:09;;;;;;;22.50;17.20;;;4.90;99.90;;;;;;5002276;28;20248;-66
2020/12/12 01:17:34;;;;;;;22.63;17.23;;;4.90;99.90;;;;;;5002046;28;20180;-65
2020/12/12 01:20:00;;;;;;;23.87;18.40;;;4.90;99.90;;;;;;5013449;28;20184;-66
2020/12/12 01:22:25;;;;;;;25.23;17.97;;;4.90;99.90;;;;;;5013721;28;20173;-64
2020/12/12 01:24:51;;;;;;;22.57;17.47;;;4.90;99.90;;;;;;5013588;28;20181;-65
2020/12/12 01:27:19;;;;;;;24.57;16.70;;;4.90;99.90;;;;;;5013614;28;20184;-65
2020/12/12 01:29:45;;;;;;;21.20;15.93;;;4.90;99.90;;;;;;5013282;28;20534;-64
2020/12/12 01:32:10;;;;;;;24.43;16.93;;;4.90;99.90;;;;;;5013448;28;20415;-64
2020/12/12 01:34:36;;;;;;;22.20;16.77;;;4.90;99.90;;;;;;5013657;28;20172;-64
2020/12/12 01:37:02;;;;;;;23.53;17.97;;;4.90;99.90;;;;;;5013171;28;20267;-65
2020/12/12 01:39:27;;;;;;;20.43;16.67;;;4.90;99.90;;;;;;5013325;28;20216;-65
2020/12/12 01:41:56;;;;;;;21.10;16.63;;;5.00;99.90;;;;;;5013311;28;20546;-66
2020/12/12 01:44:22;;;;;;;17.83;15.07;;;5.00;99.90;;;;;;5013278;28;20539;-65
2020/12/12 01:46:49;;;;;;;22.30;16.67;;;5.00;99.90;;;;;;5012953;28;20476;-66
2020/12/12 01:49:21;;;;;;;24.37;18.07;;;4.80;99.90;;;;;;5012935;28;20782;-65
2020/12/12 01:51:48;;;;;;;21.37;16.93;;;5.10;99.90;;;;;;5013113;28;20430;-65
2020/12/12 01:54:14;;;;;;;21.33;17.07;;;5.10;99.90;;;;;;5013013;28;20933;-65
2020/12/12 01:56:40;;;;;;;22.60;17.27;;;4.50;99.90;;;;;;5012825;28;20451;-66
2020/12/12 01:59:06;;;;;;;20.43;16.83;;;5.00;99.90;;;;;;5012823;28;20423;-65
2020/12/12 02:01:37;;;;;;;21.77;16.83;;;5.10;99.90;;;;;;5012755;28;20462;-66
2020/12/12 02:04:06;;;;;;;23.43;17.00;;;5.10;99.90;;;;;;5010222;28;20653;-65
2020/12/12 02:06:31;;;;;;;20.50;16.33;;;5.10;99.90;;;;;;5012534;28;20423;-66
2020/12/12 02:08:57;;;;;;;21.33;17.03;;;5.00;99.90;;;;;;5012798;28;20412;-65
2020/12/12 02:11:23;;;;;;;22.03;16.33;;;5.10;99.90;;;;;;5012895;28;20185;-65
2020/12/12 02:13:48;;;;;;;20.93;16.40;;;5.10;99.90;;;;;;5012616;28;20180;-65
2020/12/12 02:16:15;;;;;;;22.73;16.67;;;5.10;99.90;;;;;;5012546;28;20200;-65
2020/12/12 02:18:55;;;;;;;19.97;15.53;;;5.00;99.90;;;;;;5016947;28;20771;-65
2020/12/12 02:21:28;;;;;;;20.97;17.27;;;4.80;99.90;;;;;;5013235;28;20510;-65
2020/12/12 02:23:53;;;;;;;21.60;16.37;;;5.10;99.90;;;;;;5022174;28;20942;-66
2020/12/12 02:26:19;;;;;;;21.50;16.00;;;5.00;99.90;;;;;;5019711;28;20414;-65
2020/12/12 02:28:50;;;;;;;21.33;16.07;;;5.00;99.90;;;;;;5022773;28;20183;-66
2020/12/12 02:31:16;;;;;;;22.10;17.53;;;5.10;99.90;;;;;;5013249;28;20180;-66
2020/12/12 02:33:42;;;;;;;22.00;17.73;;;5.00;99.90;;;;;;5025005;28;20426;-66
2020/12/12 02:36:08;;;;;;;22.07;16.90;;;5.00;99.90;;;;;;5025235;28;20279;-65
2020/12/12 02:38:34;;;;;;;22.07;17.77;;;4.90;99.90;;;;;;5024936;28;20172;-66
2020/12/12 02:41:00;;;;;;;22.27;16.60;;;5.00;99.90;;;;;;5027610;28;20767;-64
2020/12/12 02:43:25;;;;;;;22.10;17.37;;;5.00;99.90;;;;;;5024166;28;20172;-65
2020/12/12 02:45:51;;;;;;;24.83;17.70;;;5.00;99.90;;;;;;5025780;28;20179;-65
2020/12/12 02:48:16;;;;;;;21.20;16.60;;;5.00;99.90;;;;;;5014982;28;20704;-66
2020/12/12 02:50:43;;;;;;;21.03;16.53;;;5.00;99.90;;;;;;5021484;28;20543;-66
2020/12/12 02:53:09;;;;;;;20.97;15.67;;;5.00;99.90;;;;;;5018910;28;20180;-65
2020/12/12 02:55:34;;;;;;;23.83;18.00;;;4.90;99.90;;;;;;5024931;28;20450;-66
2020/12/12 02:58:00;;;;;;;22.07;17.63;;;4.90;99.90;;;;;;5023051;28;20455;-65
2020/12/12 03:00:26;;;;;;;24.23;18.33;;;4.90;99.90;;;;;;5027083;28;20227;-64
2020/12/12 03:02:52;;;;;;;24.33;17.80;;;4.90;99.90;;;;;;5011536;28;20216;-65
2020/12/12 03:05:18;;;;;;;21.80;17.70;;;4.80;99.90;;;;;;5022730;28;20180;-65
2020/12/12 03:07:44;;;;;;;22.70;17.47;;;4.80;99.90;;;;;;5016118;28;20816;-65
2020/12/12 03:10:09;;;;;;;21.73;17.43;;;4.90;99.90;;;;;;5015535;28;20430;-64
2020/12/12 03:12:36;;;;;;;23.33;17.97;;;4.80;99.90;;;;;;5020797;28;20179;-65
2020/12/12 03:15:12;;;;;;;25.73;18.30;;;4.90;99.90;;;;;;5016207;28;20205;-66
2020/12/12 03:17:38;;;;;;;25.77;18.83;;;4.90;99.90;;;;;;5012745;28;20772;-66
2020/12/12 03:20:06;;;;;;;26.10;18.87;;;4.90;99.90;;;;;;5019503;28;20454;-66
2020/12/12 03:22:32;;;;;;;25.93;18.87;;;5.00;99.90;;;;;;5012851;28;20172;-66
2020/12/12 03:24:58;;;;;;;25.00;18.40;;;5.00;99.90;;;;;;5017602;28;20489;-65
2020/12/12 03:27:23;;;;;;;22.77;18.17;;;5.00;99.90;;;;;;5025518;28;20422;-66
2020/12/12 03:29:49;;;;;;;22.87;17.60;;;5.00;99.90;;;;;;5025842;28;20190;-66
2020/12/12 03:32:15;;;;;;;21.60;17.33;;;5.10;99.90;;;;;;5020786;28;20303;-64
2020/12/12 03:34:44;;;;;;;22.57;16.57;;;5.10;99.90;;;;;;5023756;28;20680;-67
2020/12/12 03:37:10;;;;;;;19.57;15.73;;;5.20;99.90;;;;;;5022326;28;20177;-65
2020/12/12 03:39:36;;;;;;;22.10;17.03;;;5.20;99.90;;;;;;5016350;28;20987;-66
2020/12/12 03:42:01;;;;;;;18.60;15.37;;;5.20;99.90;;;;;;5019705;28;20450;-66
2020/12/12 03:44:27;;;;;;;20.57;16.63;;;5.30;99.90;;;;;;5025036;28;20172;-66
2020/12/12 03:46:53;;;;;;;21.30;17.10;;;5.20;99.90;;;;;;5030105;28;20289;-65
2020/12/12 03:49:18;;;;;;;22.43;16.90;;;5.30;99.90;;;;;;5025352;28;20188;-65
2020/12/12 03:51:44;;;;;;;20.33;16.43;;;5.50;99.90;;;;;;5020332;28;20180;-65
2020/12/12 03:54:09;;;;;;;20.07;16.13;;;5.20;99.90;;;;;;5022170;28;20215;-66
2020/12/12 03:56:35;;;;;;;21.37;15.90;;;5.30;99.90;;;;;;5013768;28;20192;-66
2020/12/12 03:59:01;;;;;;;20.03;15.53;;;5.40;99.90;;;;;;5024509;28;20259;-65
2020/12/12 04:01:26;;;;;;;19.90;15.60;;;5.30;99.90;;;;;;5025114;28;20176;-64
2020/12/12 04:03:52;;;;;;;19.70;15.23;;;5.30;99.90;;;;;;4994686;28;20183;-66
2020/12/12 04:06:21;;;;;;;19.53;15.77;;;5.30;99.90;;;;;;5021941;28;20183;-65
2020/12/12 04:08:47;;;;;;;20.20;16.47;;;5.20;99.90;;;;;;5023085;28;20672;-66
2020/12/12 04:11:13;;;;;;;19.93;15.73;;;5.20;99.90;;;;;;5020489;28;20778;-65
2020/12/12 04:13:38;;;;;;;25.47;17.97;;;5.30;99.90;;;;;;5017317;28;20419;-66
2020/12/12 04:16:04;;;;;;;19.67;16.17;;;5.30;99.90;;;;;;5018433;28;20644;-66
2020/12/12 04:18:30;;;;;;;18.70;14.37;;;5.30;99.90;;;;;;5024506;28;20231;-67
2020/12/12 04:20:55;;;;;;;22.50;15.70;;;5.30;99.90;;;;;;5007607;28;20249;-65
2020/12/12 04:23:21;;;;;;;18.40;14.60;;;5.20;99.90;;;;;;5003220;28;20204;-66
2020/12/12 04:25:46;;;;;;;20.57;16.13;;;5.20;99.90;;;;;;5005178;28;20213;-66
2020/12/12 04:28:12;;;;;;;19.17;15.30;;;5.20;99.90;;;;;;5001194;28;20529;-66
2020/12/12 04:30:37;;;;;;;21.77;16.57;;;5.10;99.90;;;;;;5003625;28;20188;-67
2020/12/12 04:33:03;;;;;;;18.53;15.07;;;5.20;99.90;;;;;;5005064;28;20323;-65
2020/12/12 04:35:28;;;;;;;18.07;13.83;;;5.20;99.90;;;;;;5002618;28;20185;-65
2020/12/12 04:37:54;;;;;;;19.63;15.30;;;5.30;99.90;;;;;;5011111;28;20648;-64
2020/12/12 04:40:21;;;;;;;18.13;15.10;;;5.30;99.90;;;;;;5005571;28;20206;-66
2020/12/12 04:42:47;;;;;;;19.03;15.33;;;5.50;99.90;;;;;;5009741;28;20176;-66
2020/12/12 04:45:13;;;;;;;16.77;14.03;;;5.30;99.90;;;;;;5011097;28;20861;-65
2020/12/12 04:47:44;;;;;;;18.40;14.87;;;5.30;99.90;;;;;;4994456;28;20452;-66
2020/12/12 04:50:16;;;;;;;19.03;15.30;;;5.30;99.90;;;;;;4994855;28;20185;-64
2020/12/12 04:52:42;;;;;;;20.10;15.57;;;5.20;99.90;;;;;;5002914;28;20973;-66
2020/12/12 04:55:09;;;;;;;20.53;15.63;;;5.10;99.90;;;;;;4996963;28;20466;-65
2020/12/12 04:57:36;;;;;;;18.33;15.13;;;5.10;99.90;;;;;;4999859;28;20423;-66
2020/12/12 05:00:11;;;;;;;17.60;14.57;;;5.20;99.90;;;;;;4999867;28;20407;-66
2020/12/12 05:02:37;;;;;;;16.53;13.90;;;5.30;99.90;;;;;;5003074;28;20414;-66
2020/12/12 05:05:06;;;;;;;19.10;14.83;;;5.20;99.90;;;;;;5004222;28;20935;-65
2020/12/12 05:07:32;;;;;;;20.67;16.03;;;5.20;99.90;;;;;;4996041;28;20204;-66
2020/12/12 05:10:02;;;;;;;21.80;15.90;;;5.20;99.90;;;;;;5002185;28;20463;-64
2020/12/12 05:12:27;;;;;;;20.20;15.30;;;5.20;99.90;;;;;;5000327;28;20192;-65
2020/12/12 05:14:53;;;;;;;18.27;14.30;;;5.20;99.90;;;;;;5000447;28;20463;-65
2020/12/12 05:17:19;;;;;;;16.07;14.13;;;5.20;99.90;;;;;;4994103;28;20181;-65
2020/12/12 05:19:49;;;;;;;18.57;15.73;;;5.20;99.90;;;;;;5012636;28;20216;-66
2020/12/12 05:22:15;;;;;;;18.83;14.37;;;5.20;99.90;;;;;;5003500;28;20423;-66
2020/12/12 05:24:41;;;;;;;18.63;14.60;;;5.20;99.90;;;;;;5000828;28;20412;-65
2020/12/12 05:27:06;;;;;;;16.37;14.27;;;5.20;99.90;;;;;;5005381;28;20932;-66
2020/12/12 05:29:32;;;;;;;21.83;15.23;;;5.20;99.90;;;;;;4995600;28;20646;-66
2020/12/12 05:31:58;;;;;;;16.30;14.17;;;5.20;99.90;;;;;;5013139;28;20184;-64
2020/12/12 05:34:25;;;;;;;16.23;13.93;;;5.20;99.90;;;;;;5010480;28;20634;-67
2020/12/12 05:36:51;;;;;;;18.50;13.67;;;5.30;99.90;;;;;;5003866;28;20552;-66
2020/12/12 05:39:17;;;;;;;17.90;13.73;;;5.30;99.90;;;;;;5007152;28;20432;-65
2020/12/12 05:41:45;;;;;;;16.53;13.77;;;5.30;99.90;;;;;;5005374;28;20423;-64
2020/12/12 05:44:12;;;;;;;14.87;12.93;;;5.40;99.90;;;;;;4996361;28;20487;-66
2020/12/12 05:46:38;;;;;;;18.07;14.97;;;5.40;99.90;;;;;;5005751;28;20452;-65
2020/12/12 05:49:04;;;;;;;16.93;14.77;;;5.30;99.90;;;;;;4999507;28;20423;-67
2020/12/12 05:51:31;;;;;;;17.43;14.10;;;5.30;99.90;;;;;;5007478;28;20424;-66
2020/12/12 05:53:58;;;;;;;16.77;13.73;;;5.40;99.90;;;;;;5007159;28;20451;-65
2020/12/12 05:56:24;;;;;;;16.87;14.87;;;5.40;99.90;;;;;;5001001;28;20455;-66
2020/12/12 05:58:54;;;;;;;17.33;14.07;;;5.30;99.90;;;;;;4993162;28;20921;-66
2020/12/12 06:01:26;;;;;;;16.83;14.00;;;5.30;99.90;;;;;;5005342;28;20416;-65
2020/12/12 06:03:57;;;;;;;15.87;12.97;;;5.30;99.90;;;;;;4998061;28;20427;-66
2020/12/12 06:06:25;;;;;;;17.70;13.27;;;5.30;99.90;;;;;;4993364;28;20424;-64
2020/12/12 06:09:00;;;;;;;15.03;13.40;;;5.40;99.90;;;;;;4998914;28;20486;-65
2020/12/12 06:11:29;;;;;;;17.57;14.83;;;5.40;99.90;;;;;;5010476;28;20976;-65
2020/12/12 06:14:01;;;;;;;20.30;16.07;;;5.40;99.90;;;;;;5000211;28;20474;-66
2020/12/12 06:16:29;;;;;;;19.80;14.13;;;5.50;99.90;;;;;;5012301;28;20450;-65
2020/12/12 06:19:14;;;;;;;16.30;14.47;;;5.50;99.90;;;;;;5012512;28;20455;-66
2020/12/12 06:21:48;;;;;;;17.70;14.57;;;5.50;99.90;;;;;;5000199;28;20413;-66
2020/12/12 06:24:16;;;;;;;18.47;14.27;;;5.50;99.90;;;;;;4997439;28;20424;-66
2020/12/12 06:26:46;;;;;;;18.80;14.77;;;5.50;99.90;;;;;;4999982;28;20431;-67
2020/12/12 06:29:14;;;;;;;18.63;14.27;;;5.50;99.90;;;;;;5000736;28;20898;-65
2020/12/12 06:31:42;;;;;;;18.93;15.00;;;5.60;99.90;;;;;;4989042;28;20827;-65
2020/12/12 06:34:08;;;;;;;17.63;14.07;;;5.50;99.90;;;;;;5001062;28;20443;-65
2020/12/12 06:36:34;;;;;;;18.97;14.97;;;5.50;99.90;;;;;;4996931;28;20473;-65
2020/12/12 06:39:24;;;;;;;19.13;14.87;;;5.60;99.90;;;;;;5010751;28;20234;-66
2020/12/12 06:41:55;;;;;;;17.10;14.13;;;5.50;99.90;;;;;;4994350;28;20419;-65
2020/12/12 06:44:38;;;;;;;20.37;15.27;;;5.50;99.90;;;;;;5004438;28;20423;-65
2020/12/12 06:47:05;;;;;;;20.20;14.83;;;5.50;99.90;;;;;;4997095;28;20439;-66
2020/12/12 06:49:31;;;;;;;20.27;15.37;;;5.40;99.90;;;;;;4997880;28;20416;-66
2020/12/12 06:51:57;;;;;;;19.60;15.87;;;5.40;99.90;;;;;;4997439;28;20496;-65
2020/12/12 06:54:23;;;;;;;19.67;15.83;;;5.40;99.90;;;;;;4997429;28;20195;-65
2020/12/12 06:56:49;;;;;;;20.07;16.77;;;5.40;99.90;;;;;;5009715;28;20526;-66
2020/12/12 06:59:35;;;;;;;21.13;16.93;;;5.30;99.90;;;;;;4995076;28;20435;-65
2020/12/12 07:02:05;;;;;;;22.40;17.07;;;5.30;99.90;;;;;;4982775;28;20460;-64
2020/12/12 07:04:33;;;;;;;21.67;16.73;;;5.30;99.90;;;;;;5006523;28;20490;-66
2020/12/12 07:07:07;;;;;;;21.57;16.53;;;5.30;99.90;;;;;;4999405;28;20423;-65
2020/12/12 07:09:40;;;;;;;24.97;18.07;;;5.30;99.90;;;;;;5005467;28;20862;-64
2020/12/12 07:12:07;;;;;;;21.47;16.90;;;5.30;99.90;;;;;;5004519;28;20435;-65
2020/12/12 07:14:33;;;;;;;24.33;18.60;;;5.30;99.90;;;;;;4997410;28;20416;-67
2020/12/12 07:17:00;;;;;;;23.83;16.80;;;5.30;99.90;;;;;;5004879;28;20459;-65
2020/12/12 07:19:40;;;;;;;25.10;17.83;;;5.30;99.90;;;;;;5012681;28;20956;-66
2020/12/12 07:22:09;;;;;;;23.70;18.27;;;5.30;99.90;;;;;;4993581;28;20511;-64
2020/12/12 07:24:35;;;;;;;26.17;18.63;;;5.30;99.90;;;;;;4992379;28;20463;-66
2020/12/12 07:27:02;;;;;;;22.43;17.00;;;5.30;99.90;;;;;;5011148;28;20789;-65
2020/12/12 07:29:30;;;;;;;23.17;17.93;;;5.40;99.90;;;;;;5011124;28;20427;-65
2020/12/12 07:31:56;;;;;;;22.10;18.10;;;5.40;99.90;;;;;;5010788;28;20424;-65
2020/12/12 07:34:23;;;;;;;22.87;19.03;;;5.40;99.90;;;;;;5010863;28;20422;-65
2020/12/12 07:37:03;;;;;;;22.53;17.73;;;5.40;99.90;;;;;;5010913;28;20469;-65
2020/12/12 07:39:38;;;;;;;24.17;18.90;;;5.30;99.90;;;;;;5010912;28;20415;-65
2020/12/12 07:42:05;;;;;;;26.23;18.37;;;5.40;99.90;;;;;;5001417;28;20428;-65
2020/12/12 07:44:32;;;;;;;24.43;19.07;;;5.40;99.90;;;;;;5006099;28;20763;-66
2020/12/12 07:47:05;;;;;;;22.77;18.10;;;5.40;99.90;;;;;;4992645;28;20427;-65
2020/12/12 07:49:37;;;;;;;21.73;17.07;;;5.50;99.90;;;;;;4991121;28;20499;-66
2020/12/12 07:52:10;;;;;;;22.90;18.07;;;5.60;99.90;;;;;;4991172;28;20446;-64
2020/12/12 07:54:39;;;;;;;22.63;17.47;;;5.70;99.90;;;;;;5000937;28;20806;-64
2020/12/12 07:57:07;;;;;;;22.77;17.07;;;5.80;99.90;;;;;;4991286;28;20993;-64
2020/12/12 07:59:32;;;;;;;19.97;16.00;;;5.80;99.90;;;;;;4992756;28;20416;-64
2020/12/12 08:02:03;;;;;;;23.03;16.97;;;5.80;99.90;;;;;;4991202;28;20439;-65
2020/12/12 08:04:29;;;;;;;20.87;16.63;;;5.80;99.90;;;;;;4993226;28;20221;-66
2020/12/12 08:06:55;;;;;;;19.80;16.27;;;5.80;99.90;;;;;;4995080;28;20455;-64
2020/12/12 08:09:22;;;;;;;21.23;16.07;;;5.80;99.90;;;;;;4995069;28;20184;-65
2020/12/12 08:11:56;;;;;;;17.53;14.17;;;6.00;99.90;;;;;;5010121;28;20184;-65
2020/12/12 08:14:22;;;;;;;17.90;14.40;;;6.10;99.90;;;;;;5014451;28;20411;-63
2020/12/12 08:16:53;;;;;;;18.73;14.73;;;6.10;99.90;;;;;;5014421;28;20466;-64
2020/12/12 08:19:19;;;;;;;16.20;13.33;;;6.20;99.90;;;;;;5016120;28;20208;-64
2020/12/12 08:21:48;;;;;;;16.83;12.97;;;6.30;99.90;;;;;;5014845;28;20482;-64
2020/12/12 08:24:14;;;;;;;16.37;12.60;;;6.40;99.90;;;;;;5014113;28;20697;-65
2020/12/12 08:26:40;;;;;;;15.53;12.67;;;6.30;99.90;;;;;;5011493;28;20500;-64
2020/12/12 08:29:06;;;;;;;16.70;12.70;;;6.30;99.90;;;;;;4997644;28;20503;-66
2020/12/12 08:31:39;;;;;;;18.40;13.43;;;6.30;99.90;;;;;;4995006;28;20185;-66
2020/12/12 08:34:07;;;;;;;15.90;10.93;;;6.30;99.90;;;;;;5001684;28;20535;-65
2020/12/12 08:36:33;;;;;;;12.37;10.00;;;6.40;99.90;;;;;;5014287;28;20450;-65
2020/12/12 08:39:07;;;;;;;10.83;9.40;;;6.50;99.90;;;;;;4999186;28;20412;-67
2020/12/12 08:41:37;;;;;;;9.73;8.20;;;6.60;99.90;;;;;;4996643;28;20416;-63
2020/12/12 08:44:04;;;;;;;11.33;8.47;;;6.70;99.90;;;;;;5014326;28;20893;-64
2020/12/12 08:46:30;;;;;;;9.03;7.93;;;6.60;99.90;;;;;;5014392;28;20419;-66
2020/12/12 08:48:56;;;;;;;9.63;7.90;;;6.70;99.90;;;;;;5002830;28;20420;-65
2020/12/12 08:51:23;;;;;;;10.37;8.53;;;6.80;99.90;;;;;;4994603;28;20421;-65
2020/12/12 08:53:50;;;;;;;10.30;8.40;;;6.80;99.90;;;;;;5002720;28;20177;-65
2020/12/12 08:56:21;;;;;;;12.10;8.03;;;6.70;99.90;;;;;;4994698;28;20461;-65
2020/12/12 08:59:06;;;;;;;14.57;10.07;;;6.70;99.90;;;;;;4992474;28;20419;-65
2020/12/12 09:01:44;;;;;;;13.93;10.20;;;6.80;99.90;;;;;;5013563;28;20423;-65
2020/12/12 09:04:19;;;;;;;16.80;14.43;;;6.80;99.90;;;;;;5007626;28;20428;-65
2020/12/12 09:06:49;;;;;;;22.23;15.97;;;6.80;99.90;;;;;;4976599;28;20431;-65
2020/12/12 09:09:28;;;;;;;21.37;17.97;;;6.80;99.90;;;;;;4979419;28;20460;-67
2020/12/12 09:12:10;;;;;;;16.50;13.57;;;6.90;99.90;;;;;;4993701;28;20902;-65
2020/12/12 09:14:42;;;;;;;20.13;14.93;;;6.90;99.90;;;;;;4993782;28;20428;-64
2020/12/12 09:17:09;;;;;;;19.73;13.57;;;7.00;99.90;;;;;;4992588;28;20467;-65
2020/12/12 09:19:36;;;;;;;18.60;15.20;;;7.10;99.90;;;;;;5005745;28;20454;-65
2020/12/12 09:22:06;;;;;;;19.77;15.60;;;6.90;99.90;;;;;;5012642;28;20407;-64
2020/12/12 09:24:31;;;;;;;21.50;17.47;;;6.90;99.90;;;;;;5013729;28;21019;-63
2020/12/12 09:26:58;;;;;;;23.97;18.07;;;6.90;99.90;;;;;;5013517;28;20414;-64
2020/12/12 09:29:25;;;;;;;24.13;17.37;;;6.90;99.90;;;;;;5013348;28;20235;-64
2020/12/12 09:31:51;;;;;;;29.60;18.37;;;6.90;99.90;;;;;;5012370;28;20423;-63
2020/12/12 09:34:18;;;;;;;26.47;19.23;;;6.80;99.90;;;;;;5013409;28;20424;-67
2020/12/12 09:36:44;;;;;;;24.47;19.10;;;7.00;99.90;;;;;;5013764;28;20475;-65
2020/12/12 09:39:09;;;;;;;21.87;17.43;;;7.10;99.90;;;;;;5013268;28;20932;-64
2020/12/12 09:41:35;;;;;;;20.83;15.73;;;7.10;99.90;;;;;;5012746;28;20180;-66
2020/12/12 09:44:00;;;;;;;19.83;14.80;;;7.10;99.90;;;;;;5012970;28;20176;-63
2020/12/12 09:46:26;;;;;;;17.97;14.77;;;7.10;99.90;;;;;;5012837;28;20223;-64
2020/12/12 09:48:52;;;;;;;16.67;13.20;;;7.40;99.90;;;;;;5012886;28;20645;-64
2020/12/12 09:51:18;;;;;;;13.03;11.13;;;7.20;99.90;;;;;;5013190;28;20278;-64
2020/12/12 09:53:45;;;;;;;10.30;9.20;;;7.20;99.90;;;;;;5012469;28;20435;-63
2020/12/12 09:56:17;;;;;;;10.97;8.87;;;7.70;99.90;;;;;;5012723;28;20555;-64
2020/12/12 09:58:43;;;;;;;9.60;8.37;;;7.40;99.90;;;;;;5012748;28;20435;-64
2020/12/12 10:01:10;;;;;;;9.90;8.30;;;7.40;99.90;;;;;;5012634;28;20446;-64
2020/12/12 10:03:35;;;;;;;8.43;7.53;;;7.50;99.90;;;;;;5011627;28;20486;-64
2020/12/12 10:06:01;;;;;;;8.60;7.70;;;7.50;99.90;;;;;;4994763;28;20522;-63
2020/12/12 10:08:28;;;;;;;9.53;7.77;;;7.50;99.90;;;;;;5012518;28;20179;-64
2020/12/12 10:10:53;;;;;;;8.80;7.33;;;7.50;99.90;;;;;;5012438;28;20275;-64
2020/12/12 10:13:19;;;;;;;11.73;8.97;;;7.50;99.90;;;;;;5012425;28;20526;-63
2020/12/12 10:15:46;;;;;;;9.07;7.60;;;7.60;99.90;;;;;;5012384;28;20677;-64
2020/12/12 10:18:11;;;;;;;8.87;7.40;;;7.50;99.90;;;;;;5012324;28;20180;-64
2020/12/12 10:20:37;;;;;;;10.30;8.13;;;7.50;99.90;;;;;;5013610;28;20821;-64
2020/12/12 10:23:04;;;;;;;8.10;7.30;;;7.60;99.90;;;;;;5012257;28;20208;-65
2020/12/12 10:25:29;;;;;;;8.73;7.57;;;7.60;99.90;;;;;;5012265;28;20544;-64
2020/12/12 10:27:56;;;;;;;7.77;7.03;;;7.70;99.90;;;;;;5012021;28;20419;-63
2020/12/12 10:30:23;;;;;;;10.30;7.63;;;7.60;99.90;;;;;;5012495;28;20203;-65
2020/12/12 10:32:49;;;;;;;8.23;7.00;;;7.80;99.90;;;;;;5012165;28;20423;-65
2020/12/12 10:35:15;;;;;;;7.73;6.50;;;7.70;99.90;;;;;;5012315;28;20459;-64
2020/12/12 10:37:41;;;;;;;8.47;6.70;;;7.70;99.90;;;;;;5011961;28;20772;-65
2020/12/12 10:41:00;;;;;;;7.43;6.17;;;7.70;99.90;;;;;;5011852;28;20420;-64
2020/12/12 10:42:57;;;;;;;7.93;6.53;;;7.80;99.90;;;;;;5001183;28;20180;-65
2020/12/12 10:45:22;;;;;;;8.03;6.77;;;7.80;99.90;;;;;;5012006;28;20507;-63
2020/12/12 10:47:48;;;;;;;6.97;6.03;;;7.80;99.90;;;;;;5011668;28;20203;-64
2020/12/12 10:50:13;;;;;;;8.37;6.50;;;7.80;99.90;;;;;;5011847;28;20537;-64
2020/12/12 10:52:40;;;;;;;7.07;6.37;;;7.90;99.90;;;;;;5011929;28;20192;-64
2020/12/12 10:55:06;;;;;;;7.37;6.03;;;7.90;99.90;;;;;;5011547;28;20168;-63
2020/12/12 10:57:32;;;;;;;6.93;6.23;;;7.80;99.90;;;;;;5011618;28;20442;-64
2020/12/12 10:59:59;;;;;;;5.90;5.30;;;7.90;99.90;;;;;;5011771;28;20878;-64
2020/12/12 11:02:28;;;;;;;5.33;4.83;;;7.90;99.90;;;;;;5011715;28;20412;-64
2020/12/12 11:04:53;;;;;;;7.23;5.80;;;8.00;99.90;;;;;;5011362;28;20499;-63
2020/12/12 11:07:19;;;;;;;6.57;5.97;;;7.90;99.90;;;;;;5011578;28;20415;-64
2020/12/12 11:09:46;;;;;;;9.27;6.60;;;7.90;99.90;;;;;;4993612;28;20955;-64
2020/12/12 11:12:13;;;;;;;6.07;5.47;;;7.90;99.90;;;;;;5011628;28;20176;-64
2020/12/12 11:14:39;;;;;;;6.23;5.63;;;8.00;99.90;;;;;;5011615;28;20913;-64
2020/12/12 11:17:05;;;;;;;6.00;5.43;;;8.10;99.90;;;;;;5011446;28;20992;-64
2020/12/12 11:19:31;;;;;;;6.67;5.47;;;8.20;99.90;;;;;;5017979;28;20544;-63
2020/12/12 11:21:57;;;;;;;6.03;5.53;;;8.20;99.90;;;;;;5030865;28;20168;-63
2020/12/12 11:24:23;;;;;;;5.90;5.30;;;8.20;99.90;;;;;;5024778;28;20180;-63
2020/12/12 11:26:52;;;;;;;5.47;4.80;;;8.20;99.90;;;;;;5016917;28;20597;-63
2020/12/12 11:29:18;;;;;;;5.97;4.87;;;8.20;99.90;;;;;;5023680;28;20426;-63
2020/12/12 11:31:48;;;;;;;6.73;4.90;;;8.30;99.90;;;;;;5030491;28;20422;-65
2020/12/12 11:47:29;;;;;;;5.43;4.93;;;8.40;99.90;;;;;;5011317;28;20418;-63
2020/12/12 11:49:55;;;;;;;5.70;4.33;;;8.40;99.90;;;;;;5011309;28;20424;-63
2020/12/12 11:52:21;;;;;;;4.50;4.10;;;8.40;99.90;;;;;;5010949;28;20538;-63
2020/12/12 11:54:47;;;;;;;4.77;4.27;;;8.40;99.90;;;;;;5011067;28;20186;-65
2020/12/12 11:57:13;;;;;;;5.33;4.83;;;8.30;99.90;;;;;;5016358;28;20545;-63
2020/12/12 11:59:38;;;;;;;6.67;5.23;;;8.40;99.90;;;;;;5030619;28;20577;-63
2020/12/12 12:02:05;;;;;;;5.43;4.93;;;8.30;99.90;;;;;;5030477;28;20179;-64
2020/12/12 12:04:31;;;;;;;5.00;4.50;;;8.30;99.90;;;;;;5019769;28;20262;-64
2020/12/12 12:06:57;;;;;;;4.73;4.20;;;8.40;99.90;;;;;;5030614;28;20784;-62
2020/12/12 12:12:00;;;;;;;5.47;4.20;;;8.40;99.90;;;;;;5010968;28;20419;-62
2020/12/12 12:14:26;;;;;;;5.90;5.30;;;8.40;99.90;;;;;;5010538;28;20423;-61
2020/12/12 12:16:52;;;;;;;6.57;5.40;;;8.40;99.90;;;;;;5021430;28;20203;-62
2020/12/12 12:19:17;;;;;;;5.60;5.03;;;8.40;99.90;;;;;;5023696;28;20230;-63
2020/12/12 12:21:47;;;;;;;5.77;5.17;;;8.50;99.90;;;;;;5010966;28;20591;-62
2020/12/12 12:24:16;;;;;;;6.50;5.30;;;8.50;99.90;;;;;;5011497;28;20658;-63
2020/12/12 12:26:43;;;;;;;6.17;5.57;;;8.60;99.90;;;;;;5011168;28;20985;-62
2020/12/12 12:29:12;;;;;;;7.77;6.07;;;8.50;99.90;;;;;;5011371;28;20432;-63
2020/12/12 12:31:39;;;;;;;8.00;5.80;;;8.50;99.90;;;;;;5011240;28;20427;-64
2020/12/12 12:34:04;;;;;;;7.00;6.40;;;8.50;99.90;;;;;;5011505;28;20423;-62
2020/12/12 12:36:31;;;;;;;7.80;7.00;;;8.50;99.90;;;;;;5011322;28;20945;-62
2020/12/12 12:38:58;;;;;;;7.17;6.50;;;8.50;99.90;;;;;;5011393;28;20172;-62
2020/12/12 12:41:28;;;;;;;7.37;6.67;;;8.50;99.90;;;;;;5011096;28;20558;-64
2020/12/12 12:44:00;;;;;;;8.10;7.30;;;8.50;99.90;;;;;;5010946;28;20412;-64
2020/12/12 12:46:27;;;;;;;9.33;8.40;;;8.40;99.90;;;;;;5011143;28;20423;-63
2020/12/12 12:48:52;;;;;;;10.20;8.90;;;8.30;99.90;;;;;;5010887;28;20466;-63
2020/12/12 12:51:18;;;;;;;10.77;8.70;;;8.30;99.90;;;;;;5012534;28;20446;-62
2020/12/12 12:53:43;;;;;;;11.63;8.83;;;8.40;99.90;;;;;;5014710;28;20832;-63
2020/12/12 12:56:10;;;;;;;10.90;9.80;;;8.40;99.90;;;;;;5014292;28;20232;-63
2020/12/12 12:58:36;;;;;;;11.43;10.33;;;8.40;99.90;;;;;;5014566;28;20173;-62